createdAt,value
2019-02-16T00:01:23.219Z,2.80
2019-02-16T00:03:52.573Z,2.70
2019-02-16T00:06:21.882Z,2.70
2019-02-16T00:08:51.234Z,2.70
2019-02-16T00:11:20.532Z,2.70
2019-02-16T00:13:49.876Z,2.70
2019-02-16T00:16:19.191Z,2.70
2019-02-16T00:18:48.554Z,2.70
2019-02-16T00:21:18.742Z,2.60
2019-02-16T00:23:48.101Z,2.40
2019-02-16T00:26:17.422Z,2.30
2019-02-16T00:28:46.998Z,2.30
2019-02-16T00:31:16.700Z,2.20
2019-02-16T00:33:47.137Z,2.20
2019-02-16T00:36:16.453Z,2.20
2019-02-16T00:38:45.820Z,2.20
2019-02-16T00:41:15.186Z,2.20
2019-02-16T00:43:44.661Z,2.20
2019-02-16T00:46:14.017Z,2.20
2019-02-16T00:48:43.334Z,2.20
2019-02-16T00:51:13.944Z,2.20
2019-02-16T00:53:43.483Z,2.20
2019-02-16T00:56:12.841Z,2.30
2019-02-16T00:58:42.169Z,2.30
2019-02-16T01:01:11.526Z,2.30
2019-02-16T01:03:40.846Z,2.30
2019-02-16T01:06:10.202Z,2.30
2019-02-16T01:08:39.519Z,2.20
2019-02-16T01:11:08.869Z,2.20
2019-02-16T01:13:38.187Z,2.20
2019-02-16T01:16:07.539Z,2.10
2019-02-16T01:18:38.160Z,2.10
2019-02-16T01:21:07.526Z,2.10
2019-02-16T01:23:36.840Z,2.10
2019-02-16T01:26:06.417Z,2.10
2019-02-16T01:28:35.729Z,2.10
2019-02-16T01:31:05.083Z,2.10
2019-02-16T01:33:34.431Z,2.00
2019-02-16T01:36:03.853Z,2.00
2019-02-16T01:38:33.170Z,2.00
2019-02-16T01:41:02.521Z,2.00
2019-02-16T01:43:31.832Z,1.90
2019-02-16T01:46:01.184Z,1.90
2019-02-16T01:48:30.486Z,1.90
2019-02-16T01:50:59.846Z,1.80
2019-02-16T01:53:29.178Z,1.70
2019-02-16T01:55:58.492Z,1.60
2019-02-16T01:58:27.810Z,1.60
2019-02-16T02:00:57.161Z,1.50
2019-02-16T02:03:26.477Z,1.50
2019-02-16T02:05:55.829Z,1.50
2019-02-16T02:08:25.153Z,1.50
2019-02-16T02:10:54.502Z,1.50
2019-02-16T02:13:23.810Z,1.40
2019-02-16T02:15:53.166Z,1.40
2019-02-16T02:18:22.475Z,1.30
2019-02-16T02:20:51.816Z,1.20
2019-02-16T02:23:21.138Z,1.10
2019-02-16T02:25:50.485Z,1.10
2019-02-16T02:28:19.791Z,1.10
2019-02-16T02:30:50.112Z,1.10
2019-02-16T02:33:19.426Z,1.10
2019-02-16T02:35:48.787Z,1.10
2019-02-16T02:38:18.088Z,1.10
2019-02-16T02:40:47.446Z,1.10
2019-02-16T02:43:16.748Z,1.00
2019-02-16T02:45:46.093Z,1.00
2019-02-16T02:48:15.396Z,1.00
2019-02-16T02:50:44.808Z,1.00
2019-02-16T02:53:14.138Z,1.00
2019-02-16T02:55:43.477Z,1.00
2019-02-16T02:58:12.864Z,0.90
2019-02-16T03:00:42.210Z,0.90
2019-02-16T03:03:11.686Z,0.90
2019-02-16T03:05:42.115Z,0.90
2019-02-16T03:08:11.410Z,0.90
2019-02-16T03:10:40.921Z,0.90
2019-02-16T03:13:10.232Z,0.80
2019-02-16T03:15:39.578Z,0.80
2019-02-16T03:18:08.895Z,0.70
2019-02-16T03:20:38.786Z,0.60
2019-02-16T03:23:15.799Z,0.60
2019-02-16T03:25:51.561Z,0.60
2019-02-16T03:28:32.632Z,0.50
2019-02-16T03:31:17.199Z,0.50
2019-02-16T03:33:55.607Z,0.40
2019-02-16T03:36:39.963Z,0.30
2019-02-16T03:39:12.219Z,0.30
2019-02-16T03:41:41.580Z,0.30
2019-02-16T03:44:10.880Z,0.30
2019-02-16T03:46:40.565Z,0.30
2019-02-16T03:49:09.907Z,0.20
2019-02-16T03:51:39.465Z,0.20
2019-02-16T03:54:08.814Z,0.10
2019-02-16T03:56:38.177Z,0.10
2019-02-16T03:59:07.543Z,0.10
2019-02-16T04:01:36.850Z,0.10
2019-02-16T04:04:06.333Z,0.10
2019-02-16T04:06:35.657Z,0.00
2019-02-16T04:09:06.095Z,0.00
2019-02-16T04:11:35.411Z,0.00
2019-02-16T04:14:04.766Z,0.10
2019-02-16T04:16:34.066Z,0.10
2019-02-16T04:19:03.682Z,0.10
2019-02-16T04:21:33.001Z,0.10
2019-02-16T04:24:02.361Z,0.10
2019-02-16T04:26:31.674Z,0.00
2019-02-16T04:29:01.035Z,-0.10
2019-02-16T04:31:30.370Z,-0.10
2019-02-16T04:34:02.662Z,-0.10
2019-02-16T04:36:31.972Z,-0.10
2019-02-16T04:39:01.378Z,0.00
2019-02-16T04:41:32.283Z,0.00
2019-02-16T04:44:01.629Z,0.00
2019-02-16T04:46:30.932Z,0.10
2019-02-16T04:49:00.283Z,0.10
2019-02-16T04:51:29.580Z,0.10
2019-02-16T04:53:59.115Z,0.10
2019-02-16T04:56:28.417Z,0.10
2019-02-16T04:58:57.769Z,0.10
2019-02-16T05:01:27.118Z,0.20
2019-02-16T05:03:56.435Z,0.20
2019-02-16T05:06:25.789Z,0.20
2019-02-16T05:08:55.097Z,0.10
2019-02-16T05:11:24.452Z,0.20
2019-02-16T05:13:53.745Z,0.20
2019-02-16T05:16:23.093Z,0.10
2019-02-16T05:18:52.470Z,0.10
2019-02-16T05:21:21.851Z,0.00
2019-02-16T05:23:51.149Z,-0.10
2019-02-16T05:26:20.500Z,-0.10
2019-02-16T05:28:49.814Z,-0.10
2019-02-16T05:31:19.167Z,-0.10
2019-02-16T05:33:48.482Z,-0.20
2019-02-16T05:36:17.838Z,-0.20
2019-02-16T05:38:47.146Z,-0.20
2019-02-16T05:41:16.678Z,-0.20
2019-02-16T05:43:46.005Z,-0.20
2019-02-16T05:46:15.368Z,-0.10
2019-02-16T05:48:45.457Z,-0.10
2019-02-16T05:51:14.816Z,-0.10
2019-02-16T05:53:44.125Z,-0.10
2019-02-16T05:56:13.486Z,-0.10
2019-02-16T05:58:42.835Z,-0.10
2019-02-16T06:01:12.258Z,-0.10
2019-02-16T06:03:41.565Z,-0.20
2019-02-16T06:06:11.457Z,-0.20
2019-02-16T06:08:41.066Z,-0.30
2019-02-16T06:11:10.504Z,-0.30
2019-02-16T06:13:39.802Z,-0.30
2019-02-16T06:16:09.168Z,-0.20
2019-02-16T06:18:38.505Z,-0.20
2019-02-16T06:21:07.882Z,-0.20
2019-02-16T06:23:37.206Z,-0.20
2019-02-16T06:26:06.603Z,-0.20
2019-02-16T06:28:36.235Z,-0.20
2019-02-16T06:31:05.634Z,-0.20
2019-02-16T06:33:34.962Z,-0.20
2019-02-16T06:36:06.001Z,-0.10
2019-02-16T06:38:35.315Z,-0.10
2019-02-16T06:41:04.693Z,-0.10
2019-02-16T06:43:34.011Z,-0.10
2019-02-16T06:46:04.245Z,-0.10
2019-02-16T06:48:33.567Z,-0.10
2019-02-16T06:51:02.921Z,-0.10
2019-02-16T06:53:32.232Z,0.00
2019-02-16T06:56:03.257Z,-0.10
2019-02-16T06:58:32.564Z,-0.10
2019-02-16T07:01:01.921Z,0.00
2019-02-16T07:03:31.559Z,0.00
2019-02-16T07:06:00.861Z,0.00
2019-02-16T07:08:30.213Z,-0.10
2019-02-16T07:10:59.621Z,0.00
2019-02-16T07:13:28.996Z,0.00
2019-02-16T07:16:11.862Z,0.00
2019-02-16T07:18:48.692Z,0.00
2019-02-16T07:21:18.247Z,0.10
2019-02-16T07:23:47.661Z,0.10
2019-02-16T07:26:16.969Z,0.10
2019-02-16T07:28:46.321Z,0.20
2019-02-16T07:31:16.017Z,0.30
2019-02-16T07:33:45.387Z,0.40
2019-02-16T07:36:14.690Z,0.60
2019-02-16T07:38:44.046Z,0.80
2019-02-16T07:41:14.507Z,0.90
2019-02-16T07:43:51.490Z,0.80
2019-02-16T07:46:22.733Z,0.90
2019-02-16T07:48:53.804Z,1.10
2019-02-16T07:51:30.807Z,1.40
2019-02-16T07:54:07.575Z,1.60
2019-02-16T07:56:38.545Z,1.60
2019-02-16T07:59:25.573Z,1.80
2019-02-16T08:01:56.835Z,1.90
2019-02-16T08:04:30.729Z,1.90
2019-02-16T08:07:07.817Z,2.20
2019-02-16T08:09:39.436Z,3.10
2019-02-16T08:12:10.489Z,4.80
2019-02-16T08:14:45.294Z,6.50
2019-02-16T08:17:22.033Z,6.90
2019-02-16T08:20:09.010Z,6.40
2019-02-16T08:22:55.993Z,6.10
2019-02-16T08:25:32.443Z,6.40
2019-02-16T08:28:06.161Z,6.80
2019-02-16T08:30:46.236Z,7.10
2019-02-16T08:33:19.918Z,7.20
2019-02-16T08:36:02.745Z,7.20
2019-02-16T08:38:51.853Z,7.50
2019-02-16T08:41:22.841Z,7.80
2019-02-16T08:43:56.535Z,8.70
2019-02-16T08:46:30.368Z,9.70
2019-02-16T08:49:07.103Z,10.20
2019-02-16T08:51:40.973Z,10.90
2019-02-16T08:54:27.946Z,11.60
2019-02-16T08:57:11.688Z,12.70
2019-02-16T08:59:42.645Z,13.00
2019-02-16T09:02:19.565Z,12.80
2019-02-16T09:04:50.515Z,11.70
2019-02-16T09:07:27.106Z,11.30
2019-02-16T09:10:09.967Z,11.20
2019-02-16T09:12:43.937Z,10.60
2019-02-16T09:15:17.805Z,11.00
2019-02-16T09:18:05.721Z,11.70
2019-02-16T09:20:42.173Z,12.80
2019-02-16T09:23:22.173Z,12.30
2019-02-16T09:25:56.029Z,12.40
2019-02-16T09:28:43.069Z,12.20
2019-02-16T09:31:14.026Z,11.80
2019-02-16T09:33:56.969Z,12.60
2019-02-16T09:36:27.979Z,12.60
2019-02-16T09:39:10.925Z,12.60
2019-02-16T09:41:48.073Z,12.90
2019-02-16T09:44:21.846Z,12.20
2019-02-16T09:46:53.285Z,12.30
2019-02-16T09:49:26.945Z,11.90
2019-02-16T09:52:06.884Z,12.00
2019-02-16T09:54:37.873Z,13.00
2019-02-16T09:57:11.553Z,13.00
2019-02-16T09:59:45.065Z,12.50
2019-02-16T10:02:19.041Z,12.10
2019-02-16T10:04:55.858Z,12.80
2019-02-16T10:07:32.908Z,14.30
2019-02-16T10:10:13.058Z,15.10
2019-02-16T10:12:46.802Z,15.50
2019-02-16T10:15:20.821Z,15.00
2019-02-16T10:17:51.764Z,16.00
2019-02-16T10:20:22.753Z,14.40
2019-02-16T10:22:53.741Z,14.00
2019-02-16T10:25:30.777Z,14.60
2019-02-16T10:28:07.597Z,14.60
2019-02-16T10:30:39.388Z,14.80
2019-02-16T10:33:19.286Z,15.20
2019-02-16T10:35:50.307Z,15.40
2019-02-16T10:38:21.501Z,15.10
2019-02-16T10:40:55.512Z,15.00
2019-02-16T10:43:32.349Z,15.30
2019-02-16T10:46:19.391Z,15.50
2019-02-16T10:49:17.119Z,16.10
2019-02-16T10:52:00.080Z,17.80
2019-02-16T10:54:36.794Z,18.60
2019-02-16T10:57:13.563Z,18.60
2019-02-16T10:59:56.513Z,18.40
2019-02-16T11:02:30.472Z,16.30
2019-02-16T11:05:04.436Z,16.00
2019-02-16T11:07:35.527Z,16.80
2019-02-16T11:10:13.004Z,17.50
2019-02-16T11:12:44.008Z,17.50
2019-02-16T11:15:31.644Z,17.20
2019-02-16T11:18:05.518Z,16.20
2019-02-16T11:20:52.479Z,16.60
2019-02-16T11:23:32.313Z,16.70
2019-02-16T11:26:06.177Z,16.60
2019-02-16T11:28:53.194Z,17.20
2019-02-16T11:31:24.161Z,18.00
2019-02-16T11:33:58.277Z,17.80
2019-02-16T11:36:35.398Z,17.30
2019-02-16T11:39:10.163Z,17.30
2019-02-16T11:41:44.077Z,17.40
2019-02-16T11:44:31.111Z,18.00
2019-02-16T11:47:02.051Z,19.30
2019-02-16T11:49:36.005Z,19.60
2019-02-16T11:52:06.958Z,20.00
2019-02-16T11:54:45.480Z,19.90
2019-02-16T11:57:14.777Z,18.80
2019-02-16T12:00:00.675Z,18.60
2019-02-16T12:02:39.692Z,18.60
2019-02-16T12:05:16.644Z,18.60
2019-02-16T12:07:54.615Z,18.30
2019-02-16T12:10:25.756Z,18.90
2019-02-16T12:13:05.695Z,18.90
2019-02-16T12:15:36.649Z,19.30
2019-02-16T12:18:20.207Z,20.20
2019-02-16T12:21:00.031Z,20.10
2019-02-16T12:23:33.782Z,19.60
2019-02-16T12:26:07.715Z,20.00
2019-02-16T12:28:53.776Z,19.30
2019-02-16T12:31:37.841Z,18.50
2019-02-16T12:34:20.577Z,18.10
2019-02-16T12:37:00.398Z,18.10
2019-02-16T12:39:47.501Z,17.90
2019-02-16T12:42:18.461Z,17.80
2019-02-16T12:45:01.217Z,18.80
2019-02-16T12:47:38.329Z,19.40
2019-02-16T12:50:27.201Z,19.80
2019-02-16T12:53:14.039Z,20.10
2019-02-16T12:55:48.002Z,20.20
2019-02-16T12:58:18.953Z,20.10
2019-02-16T13:00:49.956Z,20.20
2019-02-16T13:03:26.653Z,19.60
2019-02-16T13:05:57.640Z,19.60
2019-02-16T13:08:37.355Z,18.60
2019-02-16T13:11:08.613Z,18.00
2019-02-16T13:13:39.587Z,18.20
2019-02-16T13:16:10.575Z,18.50
2019-02-16T13:18:47.473Z,18.20
2019-02-16T13:21:18.467Z,18.00
2019-02-16T13:23:49.423Z,18.10
2019-02-16T13:26:36.217Z,18.10
2019-02-16T13:29:13.134Z,17.90
2019-02-16T13:31:46.837Z,17.80
2019-02-16T13:34:17.713Z,17.90
2019-02-16T13:36:51.806Z,18.00
2019-02-16T13:39:37.653Z,18.70
2019-02-16T13:42:23.482Z,19.20
2019-02-16T13:44:57.226Z,19.80
2019-02-16T13:47:34.145Z,19.40
2019-02-16T13:50:05.481Z,18.90
2019-02-16T13:52:48.617Z,18.50
2019-02-16T13:55:36.331Z,18.80
2019-02-16T13:58:16.598Z,17.90
2019-02-16T14:00:47.541Z,17.50
2019-02-16T14:03:18.533Z,17.10
2019-02-16T14:06:04.276Z,16.90
2019-02-16T14:08:38.557Z,17.00
2019-02-16T14:11:12.535Z,17.50
2019-02-16T14:13:52.545Z,17.30
2019-02-16T14:16:23.493Z,17.10
2019-02-16T14:18:52.846Z,16.90
2019-02-16T14:21:22.163Z,16.90
2019-02-16T14:23:51.509Z,16.80
2019-02-16T14:26:21.877Z,16.90
2019-02-16T14:28:55.293Z,17.10
2019-02-16T14:31:28.539Z,16.80
2019-02-16T14:33:57.154Z,16.70
2019-02-16T14:36:26.710Z,16.80
2019-02-16T14:39:00.529Z,17.00
2019-02-16T14:41:30.521Z,17.30
2019-02-16T14:43:59.887Z,16.60
2019-02-16T14:46:29.203Z,15.60
2019-02-16T14:48:58.573Z,14.90
2019-02-16T14:51:27.889Z,14.70
2019-02-16T14:53:57.245Z,14.40
2019-02-16T14:56:26.601Z,14.00
2019-02-16T14:58:55.961Z,13.80
2019-02-16T15:01:25.325Z,13.60
2019-02-16T15:03:54.649Z,13.30
2019-02-16T15:06:24.013Z,13.10
2019-02-16T15:08:53.322Z,12.90
2019-02-16T15:11:22.685Z,12.70
2019-02-16T15:13:52.001Z,12.60
2019-02-16T15:16:21.353Z,12.50
2019-02-16T15:18:50.672Z,12.40
2019-02-16T15:21:20.229Z,12.30
2019-02-16T15:23:49.549Z,12.10
2019-02-16T15:26:18.897Z,12.00
2019-02-16T15:28:48.214Z,11.90
2019-02-16T15:31:17.566Z,11.70
2019-02-16T15:33:46.893Z,11.60
2019-02-16T15:36:23.773Z,11.50
2019-02-16T15:38:48.250Z,11.30
2019-02-16T15:41:17.838Z,11.20
2019-02-16T15:43:48.277Z,11.00
2019-02-16T15:46:17.626Z,10.90
2019-02-16T15:48:46.945Z,10.80
2019-02-16T15:51:16.373Z,10.60
2019-02-16T15:53:45.690Z,10.50
2019-02-16T15:56:15.040Z,10.40
2019-02-16T15:58:44.468Z,10.30
2019-02-16T16:01:13.905Z,10.10
2019-02-16T16:03:43.255Z,10.00
2019-02-16T16:06:12.596Z,9.80
2019-02-16T16:08:49.330Z,9.70
2019-02-16T16:11:29.251Z,9.60
2019-02-16T16:14:09.234Z,9.40
2019-02-16T16:16:43.217Z,9.30
2019-02-16T16:19:14.165Z,9.30
2019-02-16T16:22:03.266Z,9.20
2019-02-16T16:24:46.245Z,9.10
2019-02-16T16:27:33.450Z,8.90
2019-02-16T16:30:20.386Z,8.80
2019-02-16T16:33:00.260Z,8.70
2019-02-16T16:35:31.209Z,8.60
2019-02-16T16:38:07.982Z,8.70
2019-02-16T16:40:48.078Z,8.60
2019-02-16T16:43:19.065Z,8.50
2019-02-16T16:46:05.201Z,8.40
2019-02-16T16:48:52.102Z,8.20
2019-02-16T16:51:25.809Z,8.10
2019-02-16T16:53:59.826Z,8.10
2019-02-16T16:56:33.493Z,8.10
2019-02-16T16:59:16.447Z,8.10
2019-02-16T17:01:53.455Z,8.10
2019-02-16T17:04:30.488Z,8.10
2019-02-16T17:07:13.427Z,8.10
2019-02-16T17:09:47.400Z,8.00
2019-02-16T17:12:34.591Z,7.90
2019-02-16T17:14:59.984Z,7.70
2019-02-16T17:17:33.910Z,7.40
2019-02-16T17:20:21.052Z,7.30
2019-02-16T17:23:08.157Z,7.30
2019-02-16T17:25:57.277Z,7.20
2019-02-16T17:28:45.078Z,7.10
2019-02-16T17:31:17.049Z,6.90
2019-02-16T17:33:47.997Z,6.90
2019-02-16T17:36:22.208Z,6.80
2019-02-16T17:39:09.450Z,6.90
2019-02-16T17:41:51.419Z,6.90
2019-02-16T17:44:38.253Z,6.70
2019-02-16T17:47:21.358Z,6.40
2019-02-16T17:50:04.212Z,6.10
2019-02-16T17:52:41.153Z,5.80
2019-02-16T17:55:20.940Z,5.70
2019-02-16T17:57:54.590Z,5.70
2019-02-16T18:00:31.552Z,5.60
2019-02-16T18:03:20.645Z,5.50
2019-02-16T18:06:07.449Z,5.40
2019-02-16T18:08:54.788Z,5.30
2019-02-16T18:11:28.305Z,5.10
2019-02-16T18:14:17.106Z,4.80
2019-02-16T18:16:48.103Z,4.60
2019-02-16T18:19:25.101Z,4.40
2019-02-16T18:21:56.098Z,4.30
2019-02-16T18:24:45.115Z,4.10
2019-02-16T18:27:25.018Z,4.10
2019-02-16T18:29:56.040Z,4.10
2019-02-16T18:32:43.105Z,4.20
2019-02-16T18:35:24.156Z,4.20
2019-02-16T18:37:55.367Z,4.20
2019-02-16T18:40:26.353Z,4.30
2019-02-16T18:43:00.109Z,4.40
2019-02-16T18:45:47.106Z,4.50
2019-02-16T18:48:21.092Z,4.60
2019-02-16T18:51:08.454Z,4.70
2019-02-16T18:53:39.677Z,4.70
2019-02-16T18:56:22.714Z,4.70
2019-02-16T18:58:53.699Z,4.70
2019-02-16T19:01:42.553Z,4.70
2019-02-16T19:04:22.281Z,4.70
2019-02-16T19:07:05.332Z,4.70
2019-02-16T19:09:52.750Z,4.80
2019-02-16T19:12:40.801Z,4.90
2019-02-16T19:15:14.340Z,5.00
2019-02-16T19:17:45.261Z,5.00
2019-02-16T19:20:16.257Z,4.90
2019-02-16T19:22:50.242Z,4.90
2019-02-16T19:25:26.645Z,5.00
2019-02-16T19:28:13.823Z,4.90
2019-02-16T19:30:44.812Z,5.10
2019-02-16T19:33:31.849Z,5.20
2019-02-16T19:36:21.388Z,5.40
2019-02-16T19:38:58.261Z,5.40
2019-02-16T19:41:45.544Z,5.50
2019-02-16T19:44:23.401Z,5.60
2019-02-16T19:46:57.101Z,5.50
2019-02-16T19:49:44.397Z,5.50
2019-02-16T19:52:31.441Z,5.50
2019-02-16T19:55:08.405Z,5.40
2019-02-16T19:57:54.468Z,5.30
2019-02-16T20:00:25.457Z,5.20
2019-02-16T20:03:12.683Z,5.20
2019-02-16T20:05:43.756Z,5.10
2019-02-16T20:08:15.675Z,5.00
2019-02-16T20:10:49.156Z,4.90
2019-02-16T20:13:36.093Z,4.80
2019-02-16T20:16:07.089Z,4.80
2019-02-16T20:18:38.039Z,4.60
2019-02-16T20:21:17.909Z,4.50
2019-02-16T20:23:57.957Z,4.50
2019-02-16T20:26:45.246Z,4.50
2019-02-16T20:29:18.927Z,4.50
2019-02-16T20:31:49.938Z,4.50
2019-02-16T20:34:29.630Z,4.40
2019-02-16T20:37:00.629Z,4.30
2019-02-16T20:39:46.393Z,4.30
2019-02-16T20:42:24.990Z,4.20
2019-02-16T20:45:07.838Z,4.10
2019-02-16T20:47:41.779Z,4.00
2019-02-16T20:50:21.685Z,4.10
2019-02-16T20:53:04.701Z,4.10
2019-02-16T20:55:41.749Z,4.10
2019-02-16T20:58:12.772Z,4.20
2019-02-16T21:00:44.685Z,4.20
2019-02-16T21:03:15.702Z,4.20
2019-02-16T21:05:55.677Z,4.30
2019-02-16T21:08:32.371Z,4.40
2019-02-16T21:11:07.243Z,4.40
2019-02-16T21:13:39.478Z,4.40
2019-02-16T21:16:16.345Z,4.30
2019-02-16T21:18:47.360Z,4.30
2019-02-16T21:21:21.228Z,4.40
2019-02-16T21:23:52.246Z,4.50
2019-02-16T21:26:37.043Z,4.50
2019-02-16T21:29:12.761Z,4.70
2019-02-16T21:31:55.927Z,4.80
2019-02-16T21:34:32.740Z,4.80
2019-02-16T21:37:12.660Z,4.70
2019-02-16T21:39:43.647Z,4.60
2019-02-16T21:42:14.634Z,4.30
2019-02-16T21:44:45.646Z,4.30
2019-02-16T21:47:25.546Z,4.20
2019-02-16T21:50:02.053Z,4.10
2019-02-16T21:52:33.072Z,4.00
2019-02-16T21:55:13.042Z,3.80
2019-02-16T21:57:46.758Z,3.70
2019-02-16T22:00:29.350Z,3.60
2019-02-16T22:03:00.399Z,3.40
2019-02-16T22:05:31.404Z,3.30
2019-02-16T22:08:14.570Z,3.20
2019-02-16T22:10:54.187Z,3.10
2019-02-16T22:13:23.477Z,3.00
2019-02-16T22:15:52.850Z,3.10
2019-02-16T22:18:22.148Z,3.10
2019-02-16T22:20:51.502Z,3.20
2019-02-16T22:23:21.781Z,3.20
2019-02-16T22:25:51.265Z,3.10
2019-02-16T22:28:30.572Z,3.10
2019-02-16T22:30:51.917Z,3.00
2019-02-16T22:33:21.224Z,2.80
2019-02-16T22:35:50.578Z,2.70
2019-02-16T22:38:19.928Z,2.60
2019-02-16T22:40:49.301Z,2.40
2019-02-16T22:43:18.689Z,2.30
2019-02-16T22:45:48.065Z,2.20
2019-02-16T22:48:17.425Z,2.30
2019-02-16T22:50:46.756Z,2.20
2019-02-16T22:53:16.093Z,2.20
2019-02-16T22:55:45.393Z,2.20
2019-02-16T22:58:14.738Z,2.00
2019-02-16T23:00:45.409Z,2.00
2019-02-16T23:03:16.386Z,1.90
2019-02-16T23:05:46.966Z,1.90
2019-02-16T23:08:16.330Z,1.90
2019-02-16T23:10:45.697Z,1.90
2019-02-16T23:13:16.513Z,1.80
2019-02-16T23:15:45.889Z,1.80
2019-02-16T23:18:15.249Z,1.90
2019-02-16T23:20:44.559Z,1.90
2019-02-16T23:23:13.906Z,1.90
2019-02-16T23:25:43.214Z,1.80
2019-02-16T23:28:13.357Z,1.70
2019-02-16T23:30:42.826Z,1.70
2019-02-16T23:33:12.187Z,1.80
2019-02-16T23:35:41.499Z,1.80
2019-02-16T23:38:10.861Z,1.70
2019-02-16T23:40:40.834Z,1.60
2019-02-16T23:43:10.517Z,1.60
2019-02-16T23:45:41.432Z,1.60
2019-02-16T23:48:10.818Z,1.60
2019-02-16T23:50:40.293Z,1.60
2019-02-16T23:53:12.425Z,1.60
2019-02-16T23:55:41.728Z,1.60
2019-02-16T23:58:11.093Z,1.50
